createdAt,value
2023-03-04T00:00:30.928Z,14.07
2023-03-04T00:02:59.833Z,13.40
2023-03-04T00:05:28.569Z,13.37
2023-03-04T00:07:57.332Z,13.33
2023-03-04T00:10:27.628Z,13.50
2023-03-04T00:12:58.675Z,13.20
2023-03-04T00:15:27.559Z,13.43
2023-03-04T00:17:56.190Z,14.27
2023-03-04T00:20:24.980Z,14.50
2023-03-04T00:23:06.848Z,14.57
2023-03-04T00:25:38.324Z,14.37
2023-03-04T00:28:07.031Z,14.67
2023-03-04T00:30:35.696Z,17.03
2023-03-04T00:33:04.374Z,14.47
2023-03-04T00:35:33.338Z,14.07
2023-03-04T00:38:01.976Z,15.10
2023-03-04T00:40:30.640Z,15.73
2023-03-04T00:43:00.845Z,16.60
2023-03-04T00:45:29.488Z,16.73
2023-03-04T00:47:58.094Z,16.77
2023-03-04T00:50:26.803Z,15.77
2023-03-04T00:52:55.605Z,15.63
2023-03-04T00:55:24.336Z,16.90
2023-03-04T00:57:52.846Z,16.07
2023-03-04T01:00:21.894Z,16.23
2023-03-04T01:02:50.719Z,16.43
2023-03-04T01:05:19.636Z,16.87
2023-03-04T01:07:48.241Z,15.47
2023-03-04T01:10:17.553Z,15.63
2023-03-04T01:12:46.500Z,15.37
2023-03-04T01:15:16.518Z,15.70
2023-03-04T01:17:46.134Z,14.43
2023-03-04T01:20:16.636Z,14.57
2023-03-04T01:22:45.289Z,14.33
2023-03-04T01:25:13.970Z,14.80
2023-03-04T01:27:42.670Z,15.73
2023-03-04T01:30:12.531Z,15.13
2023-03-04T01:32:41.144Z,14.20
2023-03-04T01:35:10.142Z,14.37
2023-03-04T01:37:40.607Z,14.73
2023-03-04T01:40:10.326Z,15.30
2023-03-04T01:42:38.989Z,15.47
2023-03-04T01:45:10.849Z,16.27
2023-03-04T01:47:44.459Z,17.07
2023-03-04T01:50:16.172Z,14.03
2023-03-04T01:52:44.835Z,16.70
2023-03-04T01:55:16.448Z,15.13
2023-03-04T01:57:45.235Z,15.33
2023-03-04T02:00:28.722Z,15.17
2023-03-04T02:03:00.774Z,15.97
2023-03-04T02:05:30.917Z,15.27
2023-03-04T02:08:01.759Z,15.00
2023-03-04T02:10:30.776Z,14.90
2023-03-04T02:13:01.274Z,15.97
2023-03-04T02:15:31.008Z,14.97
2023-03-04T02:17:59.919Z,15.13
2023-03-04T02:20:55.910Z,14.07
2023-03-04T02:23:55.691Z,14.87
2023-03-04T02:26:26.973Z,15.17
2023-03-04T02:28:58.199Z,14.70
2023-03-04T02:31:41.590Z,15.03
2023-03-04T02:34:22.028Z,15.87
2023-03-04T02:36:53.134Z,14.27
2023-03-04T02:39:24.763Z,14.63
2023-03-04T02:41:56.340Z,15.53
2023-03-04T02:44:33.178Z,14.93
2023-03-04T02:47:02.456Z,14.07
2023-03-04T02:49:33.089Z,14.50
2023-03-04T02:52:07.781Z,14.10
2023-03-04T02:54:36.838Z,14.73
2023-03-04T02:57:09.178Z,14.03
2023-03-04T02:59:39.579Z,15.53
2023-03-04T03:02:09.146Z,14.63
2023-03-04T03:04:40.789Z,15.13
2023-03-04T03:07:09.666Z,15.40
2023-03-04T03:09:38.418Z,16.23
2023-03-04T03:12:07.090Z,14.97
2023-03-04T03:14:35.672Z,15.30
2023-03-04T03:17:04.335Z,15.37
2023-03-04T03:19:40.195Z,15.60
2023-03-04T03:22:08.863Z,15.17
2023-03-04T03:24:37.655Z,15.70
2023-03-04T03:27:06.526Z,14.90
2023-03-04T03:29:35.234Z,15.17
2023-03-04T03:32:03.840Z,15.10
2023-03-04T03:34:32.417Z,14.40
2023-03-04T03:37:01.110Z,16.37
2023-03-04T03:39:29.679Z,16.47
2023-03-04T03:42:00.382Z,18.20
2023-03-04T03:44:28.683Z,15.97
2023-03-04T03:46:57.632Z,15.83
2023-03-04T03:49:26.570Z,15.53
2023-03-04T03:51:55.117Z,16.97
2023-03-04T03:54:23.862Z,15.93
2023-03-04T03:56:52.606Z,16.63
2023-03-04T03:59:21.246Z,16.63
2023-03-04T04:01:49.930Z,16.57
2023-03-04T04:04:18.612Z,17.10
2023-03-04T04:06:47.399Z,16.70
2023-03-04T04:09:15.973Z,15.60
2023-03-04T04:11:44.629Z,16.67
2023-03-04T04:14:14.673Z,15.67
2023-03-04T04:16:44.142Z,16.37
2023-03-04T04:19:18.462Z,16.10
2023-03-04T04:21:47.244Z,17.13
2023-03-04T04:24:15.926Z,16.50
2023-03-04T04:26:46.474Z,16.43
2023-03-04T04:29:16.314Z,16.13
2023-03-04T04:31:45.052Z,16.37
2023-03-04T04:34:13.601Z,16.63
2023-03-04T04:36:42.226Z,16.17
2023-03-04T04:39:10.856Z,17.13
2023-03-04T04:41:42.633Z,17.30
2023-03-04T04:44:11.746Z,16.60
2023-03-04T04:46:41.491Z,17.30
2023-03-04T04:49:10.184Z,17.60
2023-03-04T04:51:39.872Z,17.33
2023-03-04T04:54:08.833Z,18.67
2023-03-04T04:56:37.393Z,16.53
2023-03-04T04:59:08.620Z,16.60
2023-03-04T05:01:37.995Z,16.50
2023-03-04T05:04:06.970Z,17.90
2023-03-04T05:06:35.567Z,17.50
2023-03-04T05:09:04.529Z,17.73
2023-03-04T05:11:34.942Z,16.83
2023-03-04T05:14:03.722Z,16.97
2023-03-04T05:16:33.099Z,17.23
2023-03-04T05:19:01.816Z,17.20
2023-03-04T05:21:30.807Z,17.43
2023-03-04T05:23:59.516Z,16.83
2023-03-04T05:26:28.250Z,16.67
2023-03-04T05:28:56.841Z,16.30
2023-03-04T05:31:25.594Z,16.70
2023-03-04T05:33:54.287Z,16.80
2023-03-04T05:36:22.916Z,16.77
2023-03-04T05:38:51.800Z,18.30
2023-03-04T05:41:24.719Z,17.40
2023-03-04T05:43:53.348Z,17.10
2023-03-04T05:46:25.970Z,17.63
2023-03-04T05:48:55.836Z,16.97
2023-03-04T05:51:24.863Z,16.50
2023-03-04T05:53:53.555Z,17.13
2023-03-04T05:56:22.350Z,18.27
2023-03-04T05:58:51.126Z,16.93
2023-03-04T06:01:19.854Z,17.43
2023-03-04T06:03:49.407Z,17.73
2023-03-04T06:06:19.830Z,18.50
2023-03-04T06:08:52.734Z,17.10
2023-03-04T06:11:21.501Z,17.00
2023-03-04T06:13:50.363Z,17.70
2023-03-04T06:16:19.193Z,17.37
2023-03-04T06:18:47.842Z,16.07
2023-03-04T06:21:16.590Z,17.10
2023-03-04T06:23:45.775Z,17.10
2023-03-04T06:26:15.849Z,17.87
2023-03-04T06:28:45.841Z,19.70
2023-03-04T06:31:14.642Z,21.40
2023-03-04T06:33:43.338Z,22.33
2023-03-04T06:36:11.952Z,23.67
2023-03-04T06:38:48.288Z,20.17
2023-03-04T06:44:39.099Z,21.43
2023-03-04T06:49:36.068Z,24.70
2023-03-04T06:50:18.861Z,20.97
2023-03-04T06:52:05.042Z,21.93
2023-03-04T06:54:33.783Z,19.20
2023-03-04T06:57:02.491Z,21.17
2023-03-04T06:59:31.337Z,13.57
2023-03-04T07:02:00.113Z,12.17
2023-03-04T07:04:28.891Z,10.60
2023-03-04T07:06:57.510Z,12.47
2023-03-04T07:09:26.192Z,12.17
2023-03-04T07:11:54.787Z,14.67
2023-03-04T07:14:24.281Z,12.83
2023-03-04T07:16:53.264Z,13.07
2023-03-04T07:19:22.023Z,11.97
2023-03-04T07:21:50.934Z,13.40
2023-03-04T07:24:19.760Z,13.40
2023-03-04T07:26:48.327Z,12.07
2023-03-04T07:29:17.020Z,13.57
2023-03-04T07:31:45.829Z,13.80
2023-03-04T07:34:15.689Z,14.23
2023-03-04T07:36:46.253Z,14.43
2023-03-04T07:39:16.381Z,13.63
2023-03-04T07:41:45.157Z,15.23
2023-03-04T07:44:14.195Z,16.70
2023-03-04T07:46:45.245Z,13.90
2023-03-04T07:49:14.388Z,14.57
2023-03-04T07:51:45.848Z,13.93
2023-03-04T07:54:20.843Z,13.37
2023-03-04T07:56:58.988Z,11.50
2023-03-04T07:59:27.729Z,11.67
2023-03-04T08:01:56.337Z,12.20
2023-03-04T08:04:25.140Z,11.50
2023-03-04T08:10:05.214Z,12.07
2023-03-04T08:12:36.175Z,16.17
2023-03-04T08:18:25.909Z,21.17
2023-03-04T08:23:52.603Z,23.33
2023-03-04T08:26:40.363Z,24.33
2023-03-04T08:29:10.790Z,22.67
2023-03-04T08:31:39.921Z,24.73
2023-03-04T08:34:25.902Z,24.27
2023-03-04T08:37:00.367Z,23.43
2023-03-04T08:43:07.610Z,11.10
2023-03-04T08:45:48.025Z,13.07
2023-03-04T08:52:12.855Z,23.47
2023-03-04T08:54:11.374Z,21.83
2023-03-04T08:57:03.380Z,23.20
2023-03-04T09:00:12.475Z,23.87
2023-03-04T09:03:08.087Z,23.03
2023-03-04T09:06:10.560Z,23.90
2023-03-04T09:08:37.110Z,22.33
2023-03-04T09:14:40.951Z,20.77
2023-03-04T09:17:19.769Z,21.90
2023-03-04T09:19:48.473Z,22.73
2023-03-04T09:22:17.129Z,21.10
2023-03-04T09:24:47.270Z,19.93
2023-03-04T09:27:15.949Z,18.03
2023-03-04T09:29:46.423Z,19.13
2023-03-04T09:32:15.651Z,19.77
2023-03-04T09:34:44.447Z,21.77
2023-03-04T09:37:13.299Z,19.87
2023-03-04T09:39:46.752Z,19.60
2023-03-04T09:42:26.284Z,19.30
2023-03-04T09:44:59.358Z,18.43
2023-03-04T09:47:30.088Z,17.83
2023-03-04T09:50:33.425Z,17.90
2023-03-04T09:53:11.103Z,17.13
2023-03-04T09:55:44.998Z,17.75
2023-03-04T09:58:22.768Z,18.17
2023-03-04T10:01:15.450Z,18.60
2023-03-04T10:04:06.057Z,15.88
2023-03-04T10:06:35.895Z,15.50
2023-03-04T10:09:07.444Z,17.15
2023-03-04T10:11:48.207Z,17.17
2023-03-04T10:14:23.075Z,16.40
2023-03-04T10:17:03.333Z,15.40
2023-03-04T10:20:31.747Z,14.77
2023-03-04T10:23:03.460Z,13.68
2023-03-04T10:25:34.955Z,14.77
2023-03-04T10:34:20.547Z,14.75
2023-03-04T10:37:01.101Z,13.75
2023-03-04T10:39:32.955Z,13.43
2023-03-04T10:48:27.996Z,14.13
2023-03-04T10:51:15.915Z,14.83
2023-03-04T10:53:45.247Z,15.10
2023-03-04T10:56:33.026Z,16.80
2023-03-04T10:59:26.840Z,15.70
2023-03-04T11:04:54.593Z,16.07
2023-03-04T11:07:28.022Z,15.87
2023-03-04T11:09:58.451Z,15.18
2023-03-04T11:12:30.112Z,14.98
2023-03-04T11:14:59.045Z,16.02
2023-03-04T11:17:30.909Z,15.30
2023-03-04T11:20:11.755Z,14.07
2023-03-04T11:22:40.997Z,13.85
2023-03-04T11:25:17.854Z,14.35
2023-03-04T11:27:49.544Z,15.80
2023-03-04T11:30:30.087Z,15.58
2023-03-04T11:33:01.687Z,17.07
2023-03-04T11:35:42.353Z,16.33
2023-03-04T11:38:19.852Z,14.50
2023-03-04T11:43:47.828Z,15.55
2023-03-04T11:46:41.179Z,15.23
2023-03-04T11:49:28.372Z,15.70
2023-03-04T11:55:48.679Z,16.12
2023-03-04T11:58:32.100Z,15.45
2023-03-04T12:01:18.697Z,15.90
2023-03-04T12:04:07.056Z,16.73
2023-03-04T12:07:04.816Z,16.65
2023-03-04T12:09:48.313Z,16.12
2023-03-04T12:12:28.261Z,17.20
2023-03-04T12:15:11.701Z,16.87
2023-03-04T12:18:27.804Z,16.80
2023-03-04T12:21:20.574Z,17.15
2023-03-04T12:24:14.851Z,16.62
2023-03-04T12:26:57.738Z,17.17
2023-03-04T12:29:44.862Z,16.15
2023-03-04T12:32:46.489Z,17.07
2023-03-04T12:35:27.451Z,17.95
2023-03-04T12:38:14.248Z,18.07
2023-03-04T12:47:14.399Z,17.13
2023-03-04T12:50:04.600Z,16.70
2023-03-04T12:52:43.419Z,17.03
2023-03-04T12:55:17.950Z,18.43
2023-03-04T13:04:27.273Z,17.47
2023-03-04T13:10:13.671Z,18.80
2023-03-04T13:13:14.567Z,18.27
2023-03-04T13:15:41.198Z,17.77
2023-03-04T13:18:44.728Z,17.67
2023-03-04T13:21:29.267Z,17.80
2023-03-04T13:24:07.916Z,19.45
2023-03-04T13:26:45.978Z,20.77
2023-03-04T13:29:23.822Z,20.45
2023-03-04T13:32:04.506Z,21.93
2023-03-04T13:34:54.267Z,21.23
2023-03-04T13:37:34.575Z,21.23
2023-03-04T13:40:27.411Z,20.62
2023-03-04T13:42:56.328Z,20.17
2023-03-04T13:45:40.330Z,19.50
2023-03-04T13:48:44.126Z,19.80
2023-03-04T13:51:33.258Z,19.77
2023-03-04T13:54:08.556Z,19.00
2023-03-04T13:56:47.281Z,20.23
2023-03-04T13:59:30.689Z,19.93
2023-03-04T14:02:22.196Z,21.95
2023-03-04T14:05:02.157Z,21.97
2023-03-04T14:07:52.876Z,22.70
2023-03-04T14:10:26.212Z,23.12
2023-03-04T14:13:17.921Z,23.20
2023-03-04T14:16:03.575Z,34.73
2023-03-04T14:18:32.341Z,22.70
2023-03-04T14:21:02.290Z,22.50
2023-03-04T14:23:36.564Z,22.95
2023-03-04T14:26:07.515Z,21.97
2023-03-04T14:28:44.910Z,23.55
2023-03-04T14:31:16.618Z,21.05
2023-03-04T14:33:51.227Z,20.75
2023-03-04T14:36:23.557Z,22.77
2023-03-04T14:38:55.509Z,22.50
2023-03-04T14:41:32.701Z,23.17
2023-03-04T14:44:19.619Z,21.15
2023-03-04T14:50:29.161Z,21.40
2023-03-04T14:52:47.883Z,20.43
2023-03-04T14:55:19.918Z,22.03
2023-03-04T14:57:53.608Z,20.05
2023-03-04T15:00:32.418Z,21.97
2023-03-04T15:03:07.196Z,20.23
2023-03-04T15:08:49.909Z,21.25
2023-03-04T15:11:33.297Z,21.57
2023-03-04T15:14:02.806Z,19.65
2023-03-04T15:16:37.071Z,19.65
2023-03-04T15:19:40.079Z,21.35
2023-03-04T15:22:12.131Z,20.43
2023-03-04T15:24:41.270Z,24.10
2023-03-04T15:27:13.064Z,28.77
2023-03-04T15:29:45.016Z,22.27
2023-03-04T15:32:13.893Z,21.50
2023-03-04T15:34:47.016Z,23.40
2023-03-04T15:37:27.264Z,20.73
2023-03-04T15:39:58.563Z,24.20
2023-03-04T15:42:30.660Z,21.73
2023-03-04T15:45:03.730Z,20.10
2023-03-04T15:47:32.934Z,21.25
2023-03-04T15:50:01.620Z,24.47
2023-03-04T15:52:30.340Z,27.13
2023-03-04T15:54:59.605Z,23.37
2023-03-04T15:57:31.054Z,20.80
2023-03-04T15:59:59.720Z,19.03
2023-03-04T16:02:28.732Z,21.40
2023-03-04T16:04:59.480Z,19.57
2023-03-04T16:07:44.413Z,22.23
2023-03-04T16:10:18.723Z,18.60
2023-03-04T16:12:47.833Z,22.87
2023-03-04T16:15:22.288Z,19.83
2023-03-04T16:17:58.180Z,19.00
2023-03-04T16:20:44.988Z,20.43
2023-03-04T16:23:40.295Z,18.80
2023-03-04T16:26:18.057Z,20.43
2023-03-04T16:28:46.868Z,18.97
2023-03-04T16:31:16.535Z,19.17
2023-03-04T16:33:45.211Z,19.63
2023-03-04T16:36:19.499Z,20.27
2023-03-04T16:38:59.421Z,20.63
2023-03-04T16:41:31.679Z,21.27
2023-03-04T16:44:04.417Z,21.27
2023-03-04T16:46:33.411Z,21.93
2023-03-04T16:49:02.122Z,22.77
2023-03-04T16:51:32.770Z,24.67
2023-03-04T16:54:03.920Z,22.90
2023-03-04T17:00:00.760Z,23.53
2023-03-04T17:02:31.328Z,24.33
2023-03-04T17:05:04.593Z,24.23
2023-03-04T17:07:41.782Z,23.17
2023-03-04T17:10:10.695Z,23.53
2023-03-04T17:12:39.900Z,22.47
2023-03-04T17:15:13.854Z,21.30
2023-03-04T17:17:45.233Z,23.73
2023-03-04T17:20:17.448Z,24.03
2023-03-04T17:22:48.149Z,31.20
2023-03-04T17:25:18.520Z,28.10
2023-03-04T17:27:47.243Z,27.00
2023-03-04T17:30:22.663Z,29.57
2023-03-04T17:32:51.289Z,30.60
2023-03-04T17:35:23.004Z,30.37
2023-03-04T17:37:55.305Z,33.70
2023-03-04T17:40:23.984Z,29.90
2023-03-04T17:42:52.711Z,30.50
2023-03-04T17:45:24.968Z,31.53
2023-03-04T17:47:56.347Z,32.00
2023-03-04T17:50:26.890Z,29.73
2023-03-04T17:52:56.539Z,30.73
2023-03-04T17:55:25.384Z,30.47
2023-03-04T17:57:55.685Z,32.83
2023-03-04T18:00:24.500Z,31.20
2023-03-04T18:02:53.494Z,31.17
2023-03-04T18:05:22.330Z,32.77
2023-03-04T18:07:51.052Z,30.63
2023-03-04T18:10:20.126Z,30.70
2023-03-04T18:12:51.619Z,30.77
2023-03-04T18:15:20.283Z,29.23
2023-03-04T18:17:49.257Z,30.03
2023-03-04T18:20:18.919Z,28.03
2023-03-04T18:22:47.861Z,33.53
2023-03-04T18:25:20.110Z,40.20
2023-03-04T18:27:48.770Z,37.97
2023-03-04T18:30:20.159Z,36.67
2023-03-04T18:32:52.310Z,37.03
2023-03-04T18:35:20.170Z,34.30
2023-03-04T18:37:49.929Z,37.40
2023-03-04T18:40:21.395Z,34.53
2023-03-04T18:42:53.093Z,31.20
2023-03-04T18:45:22.604Z,32.17
2023-03-04T18:47:53.125Z,30.37
2023-03-04T18:50:22.166Z,27.33
2023-03-04T18:52:55.420Z,26.80
2023-03-04T18:55:24.625Z,28.37
2023-03-04T18:57:56.060Z,27.47
2023-03-04T19:00:28.905Z,26.37
2023-03-04T19:03:09.882Z,26.83
2023-03-04T19:05:42.087Z,27.33
2023-03-04T19:08:10.691Z,30.67
2023-03-04T19:10:47.101Z,29.13
2023-03-04T19:17:49.023Z,30.27
2023-03-04T19:24:08.195Z,27.33
2023-03-04T19:26:38.432Z,28.83
2023-03-04T19:29:07.623Z,28.23
2023-03-04T19:31:51.813Z,28.97
2023-03-04T19:34:20.444Z,29.20
2023-03-04T19:36:49.152Z,28.77
2023-03-04T19:39:22.190Z,29.47
2023-03-04T19:41:52.377Z,29.70
2023-03-04T19:44:27.925Z,29.27
2023-03-04T19:53:42.542Z,29.17
2023-03-04T19:56:16.071Z,28.97
2023-03-04T19:58:46.441Z,29.40
2023-03-04T20:01:30.581Z,31.47
2023-03-04T20:07:46.158Z,21.37
2023-03-04T20:10:20.292Z,23.43
2023-03-04T20:12:59.337Z,21.23
2023-03-04T20:15:36.248Z,23.20
2023-03-04T20:24:52.097Z,19.93
2023-03-04T20:27:20.142Z,19.83
2023-03-04T20:29:50.694Z,17.90
2023-03-04T20:32:56.952Z,18.13
2023-03-04T20:35:33.063Z,16.90
2023-03-04T20:38:02.404Z,17.87
2023-03-04T20:40:37.574Z,16.40
2023-03-04T20:43:07.175Z,16.20
2023-03-04T20:57:53.603Z,18.97
2023-03-04T21:00:41.423Z,21.83
2023-03-04T21:03:26.598Z,24.47
2023-03-04T21:05:57.158Z,20.03
2023-03-04T21:08:33.708Z,20.30
2023-03-04T21:11:19.382Z,18.83
2023-03-04T21:13:52.746Z,21.90
2023-03-04T21:16:22.660Z,21.33
2023-03-04T21:22:32.106Z,18.70
2023-03-04T21:25:01.045Z,19.63
2023-03-04T21:27:29.907Z,23.30
2023-03-04T21:30:00.286Z,19.43
2023-03-04T21:35:33.124Z,19.00
2023-03-04T21:38:12.593Z,18.43
2023-03-04T21:40:45.986Z,18.90
2023-03-04T21:43:18.006Z,19.23
2023-03-04T21:45:48.480Z,19.23
2023-03-04T21:48:17.031Z,20.10
2023-03-04T21:50:45.929Z,19.47
2023-03-04T21:53:16.297Z,20.47
2023-03-04T21:55:46.384Z,19.17
2023-03-04T21:58:16.970Z,19.67
2023-03-04T22:00:49.020Z,18.60
2023-03-04T22:03:17.811Z,19.57
2023-03-04T22:05:47.952Z,18.90
2023-03-04T22:08:21.777Z,19.53
2023-03-04T22:10:50.509Z,19.53
2023-03-04T22:13:19.444Z,19.43
2023-03-04T22:15:51.907Z,18.93
2023-03-04T22:21:10.104Z,19.77
2023-03-04T22:23:40.786Z,18.13
2023-03-04T22:26:12.315Z,18.57
2023-03-04T22:28:41.652Z,19.10
2023-03-04T22:31:18.208Z,18.40
2023-03-04T22:33:47.725Z,17.80
2023-03-04T22:36:16.606Z,19.80
2023-03-04T22:38:45.519Z,18.40
2023-03-04T22:41:17.247Z,17.73
2023-03-04T22:43:47.048Z,18.03
2023-03-04T22:46:20.154Z,17.87
2023-03-04T22:48:49.771Z,18.77
2023-03-04T22:51:20.862Z,18.80
2023-03-04T22:53:51.721Z,19.17
2023-03-04T22:56:21.102Z,19.83
2023-03-04T22:58:50.771Z,20.10
2023-03-04T23:01:21.039Z,19.73
2023-03-04T23:03:51.378Z,18.07
2023-03-04T23:06:24.716Z,19.07
2023-03-04T23:08:54.107Z,18.60
2023-03-04T23:11:26.603Z,17.77
2023-03-04T23:13:56.842Z,18.47
2023-03-04T23:16:28.450Z,18.20
2023-03-04T23:18:59.705Z,19.27
2023-03-04T23:21:31.259Z,17.90
2023-03-04T23:24:01.949Z,19.40
2023-03-04T23:26:34.283Z,18.83
2023-03-04T23:29:06.034Z,19.67
2023-03-04T23:31:35.892Z,18.77
2023-03-04T23:34:07.282Z,18.90
2023-03-04T23:36:38.142Z,18.63
2023-03-04T23:39:08.360Z,18.97
2023-03-04T23:41:40.355Z,18.77
2023-03-04T23:44:09.774Z,18.53
2023-03-04T23:46:39.354Z,18.30
2023-03-04T23:49:09.422Z,19.27
2023-03-04T23:51:42.168Z,19.40
2023-03-04T23:54:11.843Z,19.07
2023-03-04T23:56:40.565Z,18.83
2023-03-04T23:59:09.714Z,18.67
